Time;durP1;ratioP1;P1;durP2;ratioP2;P2;SDS_P1;SDS_P2;PMS_P1;PMS_P2;Temp;Humidity;BMP_temperature;BMP_pressure;BME280_temperature;BME280_humidity;BME280_pressure;Samples;Min_cycle;Max_cycle;Signal;HPM_P1;HPM_P2
2022/03/27 00:01:56;;;;;;;27.63;16.27;;;6.80;94.90;;;;;;5071328;28;20195;-89
2022/03/27 00:04:21;;;;;;;27.50;16.17;;;6.80;95.20;;;;;;5071925;28;20309;-89
2022/03/27 00:06:47;;;;;;;22.73;13.73;;;6.90;95.30;;;;;;5071599;28;20246;-88
2022/03/27 00:09:13;;;;;;;24.97;13.83;;;7.00;95.10;;;;;;5071513;28;20177;-89
2022/03/27 00:11:39;;;;;;;22.60;13.60;;;7.00;95.20;;;;;;5071684;28;20198;-88
2022/03/27 00:14:06;;;;;;;22.13;13.00;;;7.00;95.50;;;;;;5071067;28;20179;-89
2022/03/27 00:16:33;;;;;;;22.43;13.13;;;7.00;95.40;;;;;;5054213;28;20179;-89
2022/03/27 00:19:00;;;;;;;22.50;13.23;;;7.00;95.50;;;;;;5071703;28;20201;-89
2022/03/27 00:21:26;;;;;;;25.47;14.27;;;7.00;95.50;;;;;;5071698;28;20197;-89
2022/03/27 00:23:53;;;;;;;23.30;13.90;;;7.00;95.50;;;;;;5071469;28;20212;-89
2022/03/27 00:26:22;;;;;;;24.73;14.27;;;6.90;95.50;;;;;;5071906;28;20209;-89
2022/03/27 00:28:49;;;;;;;24.53;13.77;;;6.90;95.50;;;;;;5071428;28;20190;-89
2022/03/27 00:31:16;;;;;;;23.40;14.30;;;6.90;95.50;;;;;;5069230;28;20181;-89
2022/03/27 00:34:04;;;;;;;24.93;14.67;;;6.80;95.30;;;;;;5070693;28;20171;-89
2022/03/27 00:36:30;;;;;;;24.33;14.43;;;6.70;95.70;;;;;;5071347;28;20194;-89
2022/03/27 00:38:56;;;;;;;23.33;13.13;;;6.60;96.00;;;;;;5074683;28;20186;-89
2022/03/27 00:41:24;;;;;;;22.27;13.20;;;6.40;95.50;;;;;;5091478;28;20201;-88
2022/03/27 00:43:50;;;;;;;24.30;12.80;;;6.30;95.30;;;;;;5074981;28;20633;-88
2022/03/27 00:46:17;;;;;;;19.90;13.33;;;6.10;95.70;;;;;;5091217;28;20212;-89
2022/03/27 00:48:43;;;;;;;22.67;13.20;;;6.10;95.90;;;;;;5091103;28;20174;-89
2022/03/27 00:51:08;;;;;;;20.13;12.33;;;6.00;96.40;;;;;;5091217;28;20215;-89
2022/03/27 00:53:39;;;;;;;23.83;12.30;;;5.90;95.90;;;;;;5074639;28;20259;-88
2022/03/27 00:56:05;;;;;;;20.13;13.00;;;5.80;96.20;;;;;;5095170;28;20170;-88
2022/03/27 00:58:30;;;;;;;19.47;12.80;;;5.70;96.30;;;;;;5095078;28;20182;-89
2022/03/27 01:01:19;;;;;;;21.70;13.27;;;5.70;96.20;;;;;;5077867;28;20181;-89
2022/03/27 01:03:47;;;;;;;25.63;13.37;;;5.70;96.30;;;;;;5094915;28;20181;-88
2022/03/27 01:06:28;;;;;;;28.67;13.53;;;5.60;96.70;;;;;;5094626;28;20197;-89
2022/03/27 01:11:46;;;;;;;23.60;13.00;;;5.30;97.90;;;;;;5062444;28;20487;-88
2022/03/27 01:14:13;;;;;;;26.13;12.73;;;5.30;97.80;;;;;;5094898;28;20196;-88
2022/03/27 01:16:41;;;;;;;21.77;13.23;;;5.30;97.70;;;;;;5094707;28;20180;-88
2022/03/27 01:19:10;;;;;;;24.07;14.07;;;5.30;97.70;;;;;;5094544;28;20203;-88
2022/03/27 01:21:37;;;;;;;30.97;14.00;;;5.30;97.80;;;;;;5094670;28;20249;-88
2022/03/27 01:24:04;;;;;;;24.03;13.27;;;5.30;98.00;;;;;;5094763;28;20203;-88
2022/03/27 01:26:30;;;;;;;25.73;12.80;;;5.30;97.80;;;;;;5094501;28;20208;-89
2022/03/27 01:28:56;;;;;;;20.97;12.33;;;5.10;98.00;;;;;;5094050;28;20177;-89
2022/03/27 01:31:23;;;;;;;20.47;11.90;;;5.00;98.10;;;;;;5094347;28;20228;-89
2022/03/27 01:33:49;;;;;;;25.83;13.20;;;5.00;98.20;;;;;;5094503;28;20184;-88
2022/03/27 01:36:23;;;;;;;18.77;11.77;;;4.90;98.40;;;;;;5111538;28;20196;-88
2022/03/27 01:38:51;;;;;;;22.07;12.53;;;5.00;98.40;;;;;;5094275;28;20218;-90
2022/03/27 01:41:17;;;;;;;21.30;12.70;;;5.00;98.00;;;;;;5094219;28;20180;-88
2022/03/27 01:43:42;;;;;;;24.87;13.10;;;4.90;98.30;;;;;;5094165;28;20191;-88
2022/03/27 01:46:08;;;;;;;22.97;12.73;;;4.90;98.70;;;;;;5094249;28;20338;-88
2022/03/27 01:48:34;;;;;;;23.90;12.60;;;4.90;98.80;;;;;;5093989;28;20172;-89
2022/03/27 01:51:00;;;;;;;24.57;12.90;;;4.80;98.70;;;;;;5093865;28;20172;-88
2022/03/27 01:53:27;;;;;;;23.30;13.40;;;4.70;98.70;;;;;;5094203;28;20199;-88
2022/03/27 01:55:53;;;;;;;25.27;12.70;;;4.60;99.00;;;;;;5093927;28;20184;-89
2022/03/27 01:58:19;;;;;;;24.33;12.80;;;4.60;98.90;;;;;;5093973;28;20180;-88
2022/03/27 02:00:45;;;;;;;23.50;12.70;;;4.70;98.70;;;;;;5094070;28;20173;-89
2022/03/27 02:03:11;;;;;;;26.03;13.43;;;4.70;98.60;;;;;;5093705;28;20559;-88
2022/03/27 02:05:37;;;;;;;21.13;13.00;;;4.70;98.50;;;;;;5093200;28;20216;-88
2022/03/27 02:08:03;;;;;;;23.37;11.93;;;4.70;98.50;;;;;;5094007;28;20177;-88
2022/03/27 02:10:30;;;;;;;19.87;11.70;;;4.60;99.00;;;;;;5093810;28;20212;-89
2022/03/27 02:12:55;;;;;;;23.27;12.47;;;4.60;99.10;;;;;;5092681;28;20192;-89
2022/03/27 02:15:23;;;;;;;25.33;13.70;;;4.60;98.60;;;;;;5093597;28;20833;-88
2022/03/27 02:17:49;;;;;;;21.70;12.60;;;4.40;98.60;;;;;;5093509;28;20181;-89
2022/03/27 02:20:23;;;;;;;22.17;12.60;;;4.40;98.90;;;;;;5093672;28;20271;-88
2022/03/27 02:22:49;;;;;;;20.73;13.10;;;4.40;98.80;;;;;;5093684;28;20211;-88
2022/03/27 02:25:18;;;;;;;24.47;12.80;;;4.50;98.80;;;;;;5093788;28;20214;-88
2022/03/27 02:27:44;;;;;;;26.77;13.13;;;4.50;98.90;;;;;;5093272;28;20282;-88
2022/03/27 02:30:11;;;;;;;20.37;12.50;;;4.30;98.90;;;;;;5092996;28;20188;-89
2022/03/27 02:32:36;;;;;;;22.13;13.13;;;4.30;99.20;;;;;;5093338;28;20216;-89
2022/03/27 02:35:02;;;;;;;25.33;13.83;;;4.30;99.80;;;;;;5093378;28;20216;-88
2022/03/27 02:37:28;;;;;;;22.20;12.33;;;4.30;99.70;;;;;;5093342;28;20223;-88
2022/03/27 02:39:54;;;;;;;23.47;13.23;;;4.20;99.50;;;;;;5092913;28;20271;-88
2022/03/27 02:42:20;;;;;;;18.60;11.73;;;4.30;99.50;;;;;;5092842;28;20283;-88
2022/03/27 02:44:46;;;;;;;27.67;12.97;;;4.30;99.50;;;;;;5093021;28;20207;-88
2022/03/27 02:47:12;;;;;;;21.07;12.13;;;4.20;99.50;;;;;;5093064;28;20202;-89
2022/03/27 02:49:38;;;;;;;19.23;12.13;;;4.20;99.50;;;;;;5093055;28;20181;-88
2022/03/27 02:52:04;;;;;;;22.73;13.00;;;4.20;99.50;;;;;;5092882;28;20250;-88
2022/03/27 02:54:30;;;;;;;22.83;12.67;;;4.20;99.60;;;;;;5092862;28;20185;-89
2022/03/27 02:56:56;;;;;;;23.30;12.90;;;4.20;99.50;;;;;;5092906;28;20267;-89
2022/03/27 02:59:22;;;;;;;23.97;13.20;;;4.20;99.90;;;;;;5092536;28;20180;-89
2022/03/27 03:01:48;;;;;;;24.53;13.20;;;4.00;99.90;;;;;;5092637;28;20227;-88
2022/03/27 03:04:14;;;;;;;25.20;12.97;;;3.90;99.90;;;;;;5092711;28;20214;-89
2022/03/27 03:06:42;;;;;;;23.13;12.23;;;3.80;99.90;;;;;;5092274;28;20244;-88
2022/03/27 03:09:08;;;;;;;24.00;13.23;;;3.80;99.90;;;;;;5092437;28;20202;-89
2022/03/27 03:11:34;;;;;;;26.47;12.43;;;3.70;99.90;;;;;;5092487;28;20199;-88
2022/03/27 03:14:00;;;;;;;24.27;12.10;;;3.70;99.90;;;;;;5092340;28;20201;-89
2022/03/27 03:16:27;;;;;;;23.53;13.23;;;3.50;99.90;;;;;;5091987;28;20191;-89
2022/03/27 03:18:56;;;;;;;21.87;12.17;;;3.50;99.90;;;;;;5092694;28;20264;-88
2022/03/27 03:21:22;;;;;;;22.17;12.50;;;3.40;99.90;;;;;;5092277;28;20245;-88
2022/03/27 03:23:48;;;;;;;20.40;11.90;;;3.30;99.90;;;;;;5092280;28;20187;-88
2022/03/27 03:26:13;;;;;;;22.70;12.30;;;3.20;99.90;;;;;;5092845;28;20214;-88
2022/03/27 03:28:40;;;;;;;25.23;13.07;;;3.20;99.90;;;;;;5095049;28;20168;-88
2022/03/27 03:31:06;;;;;;;26.60;13.27;;;3.20;99.90;;;;;;5095039;28;20274;-88
2022/03/27 03:33:33;;;;;;;22.10;12.73;;;3.20;99.90;;;;;;5094793;28;20248;-88
2022/03/27 03:35:59;;;;;;;21.97;13.13;;;3.10;99.90;;;;;;5077774;28;20195;-88
2022/03/27 03:38:26;;;;;;;23.33;13.47;;;3.00;99.90;;;;;;5094915;28;20218;-88
2022/03/27 03:40:52;;;;;;;22.33;12.20;;;3.00;99.90;;;;;;5094445;28;20187;-88
2022/03/27 03:43:20;;;;;;;22.80;12.67;;;3.00;99.90;;;;;;5094348;28;20214;-88
2022/03/27 03:45:46;;;;;;;21.13;12.80;;;3.00;99.90;;;;;;5094297;28;20230;-88
2022/03/27 03:48:13;;;;;;;24.77;13.30;;;3.00;99.90;;;;;;5094703;28;20194;-88
2022/03/27 03:50:38;;;;;;;20.07;12.23;;;3.00;99.90;;;;;;5094707;28;20195;-88
2022/03/27 03:53:05;;;;;;;26.33;12.60;;;3.00;99.90;;;;;;5094322;28;20192;-88
2022/03/27 03:55:31;;;;;;;21.77;11.70;;;2.90;99.90;;;;;;5094363;28;20187;-88
2022/03/27 03:57:57;;;;;;;21.60;12.63;;;2.70;99.90;;;;;;5094667;28;20188;-88
2022/03/27 04:00:25;;;;;;;27.63;12.70;;;2.80;99.90;;;;;;5094725;28;20180;-88
2022/03/27 04:02:52;;;;;;;21.03;12.70;;;2.90;99.90;;;;;;5093792;28;20200;-88
2022/03/27 04:05:17;;;;;;;26.13;12.10;;;3.00;99.90;;;;;;5094551;28;20294;-88
2022/03/27 04:07:43;;;;;;;25.20;12.73;;;3.00;99.90;;;;;;5093844;28;20204;-88
2022/03/27 04:10:10;;;;;;;21.03;11.57;;;3.00;99.90;;;;;;5094167;28;20207;-88
2022/03/27 04:12:36;;;;;;;25.23;13.30;;;3.00;99.90;;;;;;5094079;28;20221;-88
2022/03/27 04:15:03;;;;;;;24.13;11.80;;;3.00;99.90;;;;;;5094572;28;20184;-88
2022/03/27 04:17:29;;;;;;;22.17;10.93;;;2.90;99.90;;;;;;5094481;28;20184;-88
2022/03/27 04:19:54;;;;;;;22.67;12.20;;;2.90;99.90;;;;;;5094286;28;20183;-88
2022/03/27 04:22:21;;;;;;;22.43;11.07;;;2.80;99.90;;;;;;5094271;28;20206;-88
2022/03/27 04:24:47;;;;;;;20.90;11.23;;;2.90;99.90;;;;;;5094380;28;20210;-88
2022/03/27 04:27:13;;;;;;;22.53;11.43;;;2.80;99.90;;;;;;5094417;28;20187;-88
2022/03/27 04:29:39;;;;;;;18.17;11.43;;;3.00;99.90;;;;;;5097912;28;20179;-88
2022/03/27 04:32:05;;;;;;;20.60;11.03;;;3.00;99.90;;;;;;5098398;28;20192;-88
2022/03/27 04:34:31;;;;;;;21.50;11.60;;;3.00;99.90;;;;;;5098250;28;20183;-88
2022/03/27 04:36:57;;;;;;;21.30;10.80;;;2.90;99.90;;;;;;5098119;28;20202;-88
2022/03/27 04:39:23;;;;;;;19.27;10.63;;;2.90;99.90;;;;;;5098001;28;20201;-88
2022/03/27 04:41:49;;;;;;;20.83;11.53;;;2.80;99.90;;;;;;5097865;28;20203;-88
2022/03/27 04:44:15;;;;;;;23.60;11.27;;;2.80;99.90;;;;;;5097675;28;20177;-88
2022/03/27 04:46:40;;;;;;;21.63;11.77;;;2.70;99.90;;;;;;5097851;28;20204;-88
2022/03/27 04:49:06;;;;;;;22.83;10.93;;;2.60;99.90;;;;;;5097281;28;20178;-88
2022/03/27 04:51:32;;;;;;;19.77;10.37;;;2.60;99.90;;;;;;5097173;28;20200;-88
2022/03/27 04:53:58;;;;;;;20.97;10.60;;;2.70;99.90;;;;;;5097873;28;20192;-88
2022/03/27 04:56:24;;;;;;;21.53;11.10;;;2.70;99.90;;;;;;5098012;28;20185;-88
2022/03/27 04:58:50;;;;;;;20.50;11.03;;;2.70;99.90;;;;;;5095308;28;20186;-88
2022/03/27 05:01:19;;;;;;;18.83;10.90;;;2.60;99.90;;;;;;5095326;28;20213;-88
2022/03/27 05:03:45;;;;;;;22.20;11.87;;;2.60;99.90;;;;;;5063508;28;20183;-88
2022/03/27 05:06:11;;;;;;;24.37;11.70;;;2.60;99.90;;;;;;5097548;28;20302;-88
2022/03/27 05:08:37;;;;;;;22.70;11.70;;;2.60;99.90;;;;;;5097253;28;20226;-88
2022/03/27 05:11:03;;;;;;;21.90;11.43;;;2.50;99.90;;;;;;5097438;28;20188;-88
2022/03/27 05:13:29;;;;;;;18.67;11.47;;;2.50;99.90;;;;;;5097360;28;20264;-88
2022/03/27 05:15:55;;;;;;;19.63;10.97;;;2.40;99.90;;;;;;5097564;28;20277;-88
2022/03/27 05:18:21;;;;;;;26.33;11.07;;;2.30;99.90;;;;;;5104860;28;20189;-88
2022/03/27 05:20:47;;;;;;;22.63;11.37;;;2.30;99.90;;;;;;5118120;28;20170;-88
2022/03/27 05:23:13;;;;;;;23.50;11.60;;;2.20;99.90;;;;;;5097636;28;20299;-88
2022/03/27 05:25:41;;;;;;;19.43;11.00;;;2.20;99.90;;;;;;5097921;28;20203;-88
2022/03/27 05:28:10;;;;;;;20.40;11.07;;;2.20;99.90;;;;;;5080982;28;20605;-89
2022/03/27 05:30:36;;;;;;;23.03;11.77;;;2.10;99.90;;;;;;5080333;28;20220;-89
2022/03/27 05:33:11;;;;;;;25.33;11.97;;;2.10;99.90;;;;;;5063540;28;20193;-89
2022/03/27 05:35:38;;;;;;;18.53;10.77;;;2.10;99.90;;;;;;5078699;28;20261;-88
2022/03/27 05:38:04;;;;;;;20.00;11.83;;;2.10;99.90;;;;;;5062537;28;20197;-88
2022/03/27 05:40:30;;;;;;;20.70;11.03;;;2.20;99.90;;;;;;5095907;28;20178;-89
2022/03/27 05:42:57;;;;;;;23.37;11.60;;;2.40;99.90;;;;;;5097370;28;20209;-88
2022/03/27 05:45:25;;;;;;;24.33;11.90;;;2.40;99.90;;;;;;5096022;28;20206;-88
2022/03/27 05:47:52;;;;;;;24.07;11.63;;;2.40;99.90;;;;;;5097111;28;20164;-88
2022/03/27 05:50:19;;;;;;;23.17;12.10;;;2.40;99.90;;;;;;5097019;28;20176;-88
2022/03/27 05:52:52;;;;;;;25.53;12.53;;;2.40;99.90;;;;;;5096859;28;20670;-88
2022/03/27 05:55:19;;;;;;;25.23;11.93;;;2.40;99.90;;;;;;5097553;28;20175;-89
2022/03/27 05:57:45;;;;;;;23.73;13.13;;;2.50;99.90;;;;;;5096978;28;20266;-88
2022/03/27 06:00:13;;;;;;;23.37;12.13;;;2.40;99.90;;;;;;5096786;28;20189;-88
2022/03/27 06:02:41;;;;;;;29.60;13.33;;;2.40;99.90;;;;;;5096290;28;20198;-88
2022/03/27 06:05:07;;;;;;;23.77;12.33;;;2.50;99.90;;;;;;5096407;28;20216;-88
2022/03/27 06:07:51;;;;;;;26.90;12.40;;;2.60;99.90;;;;;;5095794;28;20188;-89
2022/03/27 06:10:23;;;;;;;26.83;13.30;;;2.60;99.90;;;;;;5096930;28;20176;-87
2022/03/27 06:12:50;;;;;;;25.60;13.53;;;2.60;99.90;;;;;;5062764;28;20204;-88
2022/03/27 06:15:17;;;;;;;23.73;12.60;;;2.70;99.90;;;;;;5096995;28;20266;-89
2022/03/27 06:17:48;;;;;;;31.17;13.60;;;2.70;99.90;;;;;;5096733;28;20177;-88
2022/03/27 06:20:17;;;;;;;25.10;11.90;;;2.80;99.90;;;;;;5096631;28;20179;-88
2022/03/27 06:22:43;;;;;;;22.83;12.07;;;2.80;99.90;;;;;;5095846;28;20215;-88
2022/03/27 06:25:11;;;;;;;25.53;13.00;;;2.90;99.90;;;;;;5063593;28;20299;-88
2022/03/27 06:27:37;;;;;;;24.77;12.77;;;3.10;99.90;;;;;;5095868;28;20172;-89
2022/03/27 06:30:08;;;;;;;22.73;12.87;;;3.20;99.90;;;;;;5096256;28;20259;-88
2022/03/27 06:32:36;;;;;;;27.90;12.93;;;3.30;99.90;;;;;;5062484;28;20298;-88
2022/03/27 06:35:04;;;;;;;23.57;12.43;;;3.40;99.90;;;;;;5096900;28;20207;-88
2022/03/27 06:37:31;;;;;;;21.77;11.93;;;3.60;99.90;;;;;;5095637;28;20196;-88
2022/03/27 06:39:57;;;;;;;22.73;12.03;;;3.60;99.90;;;;;;5078349;28;20274;-88
2022/03/27 06:42:26;;;;;;;22.97;12.83;;;3.80;99.90;;;;;;5079004;28;20200;-88
2022/03/27 06:44:54;;;;;;;23.50;10.90;;;3.80;99.90;;;;;;5079531;28;20217;-88
2022/03/27 06:47:20;;;;;;;21.23;11.57;;;4.00;99.90;;;;;;5078985;28;20180;-88
2022/03/27 06:49:47;;;;;;;25.67;11.57;;;4.00;99.90;;;;;;5061895;28;20183;-88
2022/03/27 06:52:14;;;;;;;19.83;11.40;;;4.10;99.90;;;;;;5077358;28;20193;-88
2022/03/27 06:54:40;;;;;;;25.87;11.43;;;4.20;99.90;;;;;;5077752;28;20187;-89
2022/03/27 06:57:06;;;;;;;21.20;12.23;;;4.30;99.90;;;;;;5079027;28;20184;-90
2022/03/27 07:03:01;;;;;;;17.87;11.13;;;4.40;99.90;;;;;;5100641;28;20171;-90
2022/03/27 07:05:04;;;;;;;26.10;12.67;;;4.70;99.90;;;;;;5075954;28;20200;-89
2022/03/27 07:07:31;;;;;;;25.53;12.07;;;4.80;99.90;;;;;;5075926;28;20180;-87
2022/03/27 07:09:57;;;;;;;25.40;13.27;;;4.90;99.90;;;;;;5075539;28;20613;-87
2022/03/27 07:12:24;;;;;;;21.87;13.03;;;5.10;99.90;;;;;;5059169;28;20200;-87
2022/03/27 07:15:06;;;;;;;25.13;13.00;;;5.20;99.90;;;;;;5058985;28;20180;-87
2022/03/27 07:17:32;;;;;;;23.10;12.87;;;5.20;99.90;;;;;;5075984;28;20169;-87
2022/03/27 07:19:58;;;;;;;22.30;13.03;;;5.40;99.90;;;;;;5058675;28;20184;-87
2022/03/27 07:22:24;;;;;;;26.40;12.57;;;5.50;99.90;;;;;;5058509;28;20299;-87
2022/03/27 07:24:50;;;;;;;19.27;12.00;;;5.60;99.90;;;;;;5058784;28;20204;-87
2022/03/27 07:27:51;;;;;;;26.17;12.10;;;5.80;99.90;;;;;;5059056;28;20177;-87
2022/03/27 07:30:17;;;;;;;22.37;11.83;;;5.80;99.90;;;;;;5058987;28;20172;-87
2022/03/27 07:36:07;;;;;;;22.07;12.10;;;6.10;99.90;;;;;;5075328;28;20203;-87
2022/03/27 07:38:33;;;;;;;25.57;12.97;;;6.20;99.90;;;;;;5058237;28;20192;-87
2022/03/27 07:40:59;;;;;;;26.00;13.10;;;6.10;99.90;;;;;;5058464;28;20192;-87
2022/03/27 07:43:25;;;;;;;21.83;13.23;;;6.30;99.90;;;;;;5058064;28;20200;-87
2022/03/27 07:45:51;;;;;;;20.33;12.97;;;6.40;99.90;;;;;;5058547;28;20257;-87
2022/03/27 07:48:17;;;;;;;23.17;13.70;;;6.60;99.90;;;;;;5058571;28;20216;-87
2022/03/27 07:50:44;;;;;;;23.13;14.03;;;6.70;99.90;;;;;;5058625;28;20278;-87
2022/03/27 07:53:25;;;;;;;22.80;13.50;;;6.70;99.90;;;;;;5057567;28;20193;-87
2022/03/27 07:56:08;;;;;;;21.10;12.87;;;7.00;99.90;;;;;;5074948;28;20211;-87
2022/03/27 07:58:35;;;;;;;23.80;13.87;;;7.20;99.90;;;;;;5075400;28;20196;-87
2022/03/27 08:01:00;;;;;;;28.40;14.07;;;7.30;99.90;;;;;;5075141;28;20187;-87
2022/03/27 08:03:30;;;;;;;26.23;13.30;;;7.50;99.90;;;;;;5077250;28;20209;-87
2022/03/27 08:05:56;;;;;;;23.43;13.60;;;7.60;99.90;;;;;;5079218;28;20189;-87
2022/03/27 08:08:49;;;;;;;22.20;13.93;;;7.80;99.90;;;;;;5079388;28;20188;-87
2022/03/27 08:11:15;;;;;;;22.03;13.33;;;8.10;99.90;;;;;;5079417;28;20175;-87
2022/03/27 08:13:40;;;;;;;18.70;12.47;;;8.30;99.90;;;;;;5096252;28;20225;-87
2022/03/27 08:16:06;;;;;;;26.03;13.90;;;8.50;99.90;;;;;;5095799;28;20183;-87
2022/03/27 08:18:33;;;;;;;21.67;12.90;;;8.70;99.90;;;;;;5096121;28;20236;-87
2022/03/27 08:20:59;;;;;;;25.40;13.37;;;8.80;99.90;;;;;;5095616;28;20194;-87
2022/03/27 08:23:25;;;;;;;25.60;13.03;;;9.00;99.70;;;;;;5095653;28;20207;-87
2022/03/27 08:28:35;;;;;;;21.70;12.87;;;9.20;98.60;;;;;;5079139;28;20173;-87
2022/03/27 08:31:02;;;;;;;22.03;12.73;;;9.50;98.80;;;;;;5095828;28;20172;-87
2022/03/27 08:33:28;;;;;;;21.80;12.97;;;9.70;98.80;;;;;;5095813;28;20173;-87
2022/03/27 08:35:54;;;;;;;21.73;13.07;;;10.00;98.40;;;;;;5095525;28;20275;-87
2022/03/27 08:38:20;;;;;;;22.03;12.77;;;10.20;98.30;;;;;;5078420;28;20225;-87
2022/03/27 08:40:47;;;;;;;25.27;12.37;;;10.20;97.70;;;;;;5078308;28;20177;-87
2022/03/27 08:43:26;;;;;;;26.77;13.17;;;10.50;98.00;;;;;;5077644;28;20207;-87
2022/03/27 08:45:52;;;;;;;20.63;12.60;;;10.70;97.60;;;;;;5078351;28;20200;-87
2022/03/27 08:48:18;;;;;;;19.20;11.73;;;10.80;97.00;;;;;;5062139;28;20176;-87
2022/03/27 08:50:59;;;;;;;23.87;12.13;;;11.00;96.10;;;;;;5061518;28;20249;-87
2022/03/27 08:53:46;;;;;;;22.17;13.13;;;11.10;95.90;;;;;;5078339;28;20201;-87
2022/03/27 08:56:12;;;;;;;25.20;12.63;;;11.20;96.00;;;;;;5076577;28;20180;-87
2022/03/27 08:58:40;;;;;;;21.73;12.93;;;11.40;95.90;;;;;;5076980;28;20199;-87
2022/03/27 09:01:07;;;;;;;23.20;11.97;;;11.60;95.30;;;;;;5077997;28;20183;-87
2022/03/27 09:03:34;;;;;;;19.53;11.57;;;11.70;95.20;;;;;;5078102;28;20200;-87
2022/03/27 09:06:01;;;;;;;23.83;13.37;;;11.90;95.40;;;;;;5061033;28;20228;-87
2022/03/27 09:08:29;;;;;;;22.17;13.23;;;12.10;95.70;;;;;;5078177;28;20268;-88
2022/03/27 09:10:56;;;;;;;26.87;13.90;;;12.20;95.60;;;;;;5077781;28;20291;-87
2022/03/27 09:13:23;;;;;;;24.03;12.47;;;12.30;95.50;;;;;;5077670;28;20228;-87
2022/03/27 09:16:02;;;;;;;20.73;12.17;;;12.50;95.50;;;;;;5075545;28;20186;-87
2022/03/27 09:18:45;;;;;;;22.17;12.53;;;12.60;94.70;;;;;;5077990;28;20178;-87
2022/03/27 09:21:11;;;;;;;25.30;13.37;;;12.70;94.30;;;;;;5077788;28;20182;-87
2022/03/27 09:23:37;;;;;;;23.97;12.40;;;12.90;94.90;;;;;;5074283;28;20174;-88
2022/03/27 09:26:17;;;;;;;25.10;15.77;;;13.10;95.50;;;;;;5080596;28;20201;-87
2022/03/27 09:28:49;;;;;;;21.27;12.90;;;13.30;94.60;;;;;;5077499;28;20179;-88
2022/03/27 09:31:19;;;;;;;22.53;12.87;;;13.40;94.20;;;;;;5040619;28;20227;-87
2022/03/27 09:33:50;;;;;;;24.93;13.23;;;13.60;94.30;;;;;;5053432;28;20184;-87
2022/03/27 09:36:21;;;;;;;28.30;13.90;;;13.80;94.50;;;;;;5060532;28;20223;-87
2022/03/27 09:39:18;;;;;;;22.70;13.60;;;13.80;94.30;;;;;;5060067;28;20184;-88
2022/03/27 09:41:51;;;;;;;24.63;13.33;;;13.80;93.80;;;;;;5060575;28;20200;-88
2022/03/27 09:44:57;;;;;;;21.10;13.00;;;13.90;94.10;;;;;;5060300;28;20225;-88
2022/03/27 09:47:25;;;;;;;20.57;12.80;;;14.10;94.00;;;;;;5059411;28;20184;-88
2022/03/27 09:49:51;;;;;;;22.53;12.83;;;14.10;94.10;;;;;;5083211;28;20210;-88
2022/03/27 09:52:19;;;;;;;25.07;13.20;;;14.20;94.10;;;;;;5079829;28;20240;-88
2022/03/27 09:54:56;;;;;;;23.03;12.87;;;14.50;94.30;;;;;;5059880;28;20184;-87
2022/03/27 09:57:25;;;;;;;21.83;12.93;;;14.80;93.90;;;;;;5059702;28;20175;-88
2022/03/27 09:59:53;;;;;;;26.83;13.70;;;15.00;93.40;;;;;;5059280;28;20632;-88
2022/03/27 10:02:29;;;;;;;25.63;13.40;;;15.20;93.60;;;;;;5060242;28;20208;-88
2022/03/27 10:05:00;;;;;;;20.07;12.73;;;15.30;92.90;;;;;;5060238;28;20211;-88
2022/03/27 10:07:32;;;;;;;22.53;12.97;;;15.50;92.40;;;;;;5060219;28;20195;-87
2022/03/27 10:09:58;;;;;;;21.33;12.40;;;15.60;92.60;;;;;;5093177;28;20173;-87
2022/03/27 10:12:28;;;;;;;23.17;12.90;;;15.70;93.10;;;;;;5059716;28;20200;-88
2022/03/27 10:15:03;;;;;;;20.60;12.77;;;15.80;91.90;;;;;;5076573;28;20161;-88
2022/03/27 10:17:31;;;;;;;21.47;13.47;;;16.00;92.30;;;;;;5059911;28;20210;-88
2022/03/27 10:20:04;;;;;;;22.80;12.63;;;16.20;92.50;;;;;;5073961;28;20263;-88
2022/03/27 10:22:37;;;;;;;22.20;12.90;;;16.40;92.00;;;;;;5054754;28;20208;-87
2022/03/27 10:25:34;;;;;;;24.53;13.10;;;16.60;92.00;;;;;;5059552;28;20209;-88
2022/03/27 10:28:10;;;;;;;17.97;12.23;;;16.80;91.10;;;;;;5081736;28;20271;-88
2022/03/27 10:30:38;;;;;;;21.50;12.17;;;17.10;91.40;;;;;;5075539;28;20189;-88
2022/03/27 10:33:07;;;;;;;17.13;11.33;;;17.20;90.40;;;;;;5078913;28;20279;-88
2022/03/27 10:35:46;;;;;;;19.30;10.93;;;17.40;90.80;;;;;;5075200;28;20194;-88
2022/03/27 10:38:22;;;;;;;20.15;10.02;;;17.60;84.90;;;;;;5065971;28;20196;-86
2022/03/27 10:41:01;;;;;;;17.48;9.82;;;17.70;86.50;;;;;;5070962;28;20177;-86
2022/03/27 10:43:40;;;;;;;15.63;9.10;;;17.80;82.10;;;;;;5059287;28;20192;-86
2022/03/27 10:46:24;;;;;;;17.80;10.18;;;18.00;80.30;;;;;;5075793;28;20219;-86
2022/03/27 10:48:53;;;;;;;16.90;9.23;;;17.90;80.60;;;;;;5058891;28;20172;-86
2022/03/27 10:51:25;;;;;;;14.48;9.82;;;18.00;79.50;;;;;;5059008;28;20188;-85
2022/03/27 10:54:08;;;;;;;17.73;10.40;;;18.20;82.50;;;;;;5058549;28;20187;-86
2022/03/27 10:56:43;;;;;;;18.27;9.88;;;18.30;81.50;;;;;;5075367;28;20271;-86
2022/03/27 10:59:12;;;;;;;16.40;9.57;;;18.50;82.10;;;;;;5059250;28;20184;-87
2022/03/27 11:01:41;;;;;;;18.48;10.40;;;18.60;79.40;;;;;;5058893;28;20216;-87
2022/03/27 11:04:09;;;;;;;16.98;9.35;;;18.70;81.90;;;;;;5079506;28;20621;-87
2022/03/27 11:06:42;;;;;;;18.25;10.15;;;18.90;79.70;;;;;;5058776;28;20204;-87
2022/03/27 11:09:29;;;;;;;16.80;9.35;;;19.00;76.80;;;;;;5055987;28;20231;-87
2022/03/27 11:11:56;;;;;;;16.70;9.02;;;19.20;77.80;;;;;;5041746;28;20196;-87
2022/03/27 11:14:55;;;;;;;21.40;9.25;;;19.30;75.20;;;;;;5076559;28;20183;-86
2022/03/27 11:17:34;;;;;;;16.70;9.05;;;19.40;75.40;;;;;;5059695;28;20180;-87
2022/03/27 11:20:03;;;;;;;18.85;9.20;;;19.40;75.60;;;;;;5078457;28;20165;-87
2022/03/27 11:22:48;;;;;;;14.02;9.45;;;19.50;74.50;;;;;;5064785;28;20226;-87
2022/03/27 11:25:38;;;;;;;17.65;9.52;;;19.60;75.00;;;;;;5070630;28;20200;-87
2022/03/27 11:28:08;;;;;;;14.18;9.23;;;19.80;77.20;;;;;;5076454;28;20180;-87
2022/03/27 11:31:03;;;;;;;14.18;9.43;;;19.80;77.10;;;;;;5061449;28;20173;-87
2022/03/27 11:33:30;;;;;;;15.43;9.90;;;20.00;75.80;;;;;;5060925;28;20185;-87
2022/03/27 11:36:09;;;;;;;19.98;9.52;;;20.00;73.40;;;;;;5056846;28;20214;-87
2022/03/27 11:39:09;;;;;;;16.77;9.57;;;19.80;77.90;;;;;;5056933;28;20271;-87
2022/03/27 11:41:38;;;;;;;14.88;9.80;;;20.10;75.90;;;;;;5091868;28;20199;-87
2022/03/27 11:44:16;;;;;;;16.67;10.02;;;20.30;72.80;;;;;;5092657;28;20173;-87
2022/03/27 11:46:44;;;;;;;19.15;9.55;;;20.60;74.20;;;;;;5091793;28;20246;-87
2022/03/27 11:49:11;;;;;;;17.45;10.52;;;20.60;71.30;;;;;;5091888;28;20185;-86
2022/03/27 11:51:37;;;;;;;16.23;9.98;;;20.70;71.00;;;;;;5093189;28;20197;-87
2022/03/27 11:54:19;;;;;;;18.75;8.88;;;20.50;67.80;;;;;;5077470;28;20219;-82
2022/03/27 11:56:57;;;;;;;15.18;9.77;;;20.40;71.30;;;;;;5066630;28;20177;-86
2022/03/27 11:59:28;;;;;;;16.92;10.43;;;20.60;72.40;;;;;;5063171;28;20180;-85
2022/03/27 12:02:00;;;;;;;17.95;10.75;;;20.60;70.40;;;;;;5078227;28;20200;-84
2022/03/27 12:04:29;;;;;;;19.90;10.27;;;20.50;71.00;;;;;;5051292;28;20177;-81
2022/03/27 12:06:56;;;;;;;15.90;10.05;;;20.70;71.30;;;;;;5082202;28;20238;-80
2022/03/27 12:09:27;;;;;;;15.40;9.32;;;20.70;71.40;;;;;;5096017;28;20173;-79
2022/03/27 12:12:08;;;;;;;16.15;10.73;;;21.00;70.80;;;;;;5076240;28;20192;-86
2022/03/27 12:14:52;;;;;;;18.02;10.55;;;20.90;67.80;;;;;;5058963;28;20172;-86
2022/03/27 12:17:18;;;;;;;15.05;10.23;;;21.10;69.00;;;;;;5074964;28;20173;-86
2022/03/27 12:20:05;;;;;;;14.55;9.63;;;21.20;68.20;;;;;;5057497;28;20210;-86
2022/03/27 12:22:38;;;;;;;18.17;10.73;;;21.40;66.90;;;;;;5074656;28;20307;-86
2022/03/27 12:25:07;;;;;;;17.83;10.35;;;21.30;64.60;;;;;;5075123;28;20196;-86
2022/03/27 12:30:20;;;;;;;14.82;9.68;;;21.20;67.80;;;;;;5074659;28;20204;-86
2022/03/27 12:32:51;;;;;;;15.90;9.20;;;21.50;70.20;;;;;;5057215;28;20231;-86
2022/03/27 12:35:23;;;;;;;17.08;10.48;;;21.70;68.10;;;;;;5074811;28;20169;-86
2022/03/27 12:37:49;;;;;;;14.98;10.68;;;21.80;67.40;;;;;;5075144;28;20275;-86
2022/03/27 12:40:15;;;;;;;16.38;11.15;;;21.90;65.70;;;;;;5091395;28;20254;-86
2022/03/27 12:42:47;;;;;;;16.08;11.00;;;22.00;66.40;;;;;;5108052;28;20200;-86
2022/03/27 12:45:32;;;;;;;14.70;10.00;;;22.10;67.20;;;;;;5093343;28;20467;-86
2022/03/27 12:48:03;;;;;;;15.10;9.80;;;22.20;65.90;;;;;;5059476;28;20287;-86
2022/03/27 12:50:29;;;;;;;14.43;9.48;;;22.20;65.60;;;;;;5066543;28;20260;-86
2022/03/27 12:52:57;;;;;;;16.40;11.27;;;22.40;65.00;;;;;;5066564;28;20195;-85
2022/03/27 12:55:26;;;;;;;16.20;9.65;;;22.30;62.00;;;;;;5082116;28;20208;-85
2022/03/27 12:57:58;;;;;;;15.40;9.95;;;22.40;63.40;;;;;;5064477;28;20187;-85
2022/03/27 13:00:31;;;;;;;16.48;10.10;;;22.60;63.00;;;;;;5063753;28;20211;-85
2022/03/27 13:03:15;;;;;;;14.80;9.85;;;22.50;61.80;;;;;;5080766;28;20200;-85